Time;durP1;ratioP1;P1;durP2;ratioP2;P2;SDS_P1;SDS_P2;PMS_P1;PMS_P2;Temp;Humidity;BMP_temperature;BMP_pressure;BME280_temperature;BME280_humidity;BME280_pressure;Samples;Min_cycle;Max_cycle;Signal;HPM_P1;HPM_P2
2024/01/02 00:01:05;;;;;;;92.65;53.05;;;;;;;4.48;100.00;99194.59;5051468;28;20029;-71
2024/01/02 00:03:31;;;;;;;102.88;56.72;;;;;;;4.77;100.00;99193.59;5065371;28;20017;-70
2024/01/02 00:05:56;;;;;;;101.55;56.55;;;;;;;4.87;100.00;99192.56;5057086;28;20029;-70
2024/01/02 00:08:22;;;;;;;99.55;54.92;;;;;;;4.89;100.00;99195.06;5059911;28;20031;-70
2024/01/02 00:10:47;;;;;;;95.80;51.38;;;;;;;5.03;100.00;99200.63;5030868;28;1188046;-71
2024/01/02 00:13:13;;;;;;;89.32;52.00;;;;;;;5.00;100.00;99195.69;5070721;28;20417;-71
2024/01/02 00:15:38;;;;;;;98.20;53.92;;;;;;;5.14;100.00;99181.88;5071759;28;20040;-71
2024/01/02 00:18:04;;;;;;;90.20;48.55;;;;;;;5.05;100.00;99177.00;5059687;28;20036;-70
2024/01/02 00:20:29;;;;;;;87.03;48.38;;;;;;;5.09;100.00;99176.41;5034387;28;20397;-71
2024/01/02 00:22:55;;;;;;;84.03;45.50;;;;;;;4.94;100.00;99192.19;5052506;28;20033;-70
2024/01/02 00:25:20;;;;;;;98.45;56.42;;;;;;;4.63;100.00;99193.53;5052405;28;20562;-71
2024/01/02 00:27:46;;;;;;;100.60;56.67;;;;;;;4.88;100.00;99199.75;5046064;28;20025;-71
2024/01/02 00:30:12;;;;;;;93.90;52.38;;;;;;;4.50;100.00;99195.09;5061927;28;20489;-71
2024/01/02 00:32:37;;;;;;;101.68;55.65;;;;;;;4.42;100.00;99187.50;5052461;28;20425;-73
2024/01/02 00:35:03;;;;;;;100.13;51.90;;;;;;;4.68;100.00;99180.69;5054398;28;20032;-73
2024/01/02 00:37:29;;;;;;;87.78;48.13;;;;;;;4.62;100.00;99180.81;5052517;28;20532;-73
2024/01/02 00:39:54;;;;;;;85.72;49.08;;;;;;;4.35;100.00;99170.44;5053870;28;20171;-73
2024/01/02 00:42:20;;;;;;;85.47;47.92;;;;;;;4.66;100.00;99174.66;5069658;28;20074;-73
2024/01/02 00:44:46;;;;;;;86.18;48.63;;;;;;;4.48;100.00;99185.47;5052149;28;20020;-73
2024/01/02 00:47:12;;;;;;;89.30;47.03;;;;;;;3.91;100.00;99189.06;5039824;28;20489;-73
2024/01/02 00:49:38;;;;;;;88.55;48.55;;;;;;;4.27;100.00;99180.25;5052006;28;20456;-73
2024/01/02 00:52:04;;;;;;;86.10;48.45;;;;;;;4.35;100.00;99187.88;5049781;28;20021;-73
2024/01/02 00:54:29;;;;;;;91.75;50.47;;;;;;;3.88;100.00;99186.88;5055228;28;20020;-73
2024/01/02 00:56:55;;;;;;;91.03;50.22;;;;;;;3.55;100.00;99186.75;5071827;28;20028;-73
2024/01/02 00:59:21;;;;;;;105.90;55.38;;;;;;;3.87;100.00;99193.53;5055605;28;20125;-72
2024/01/02 01:01:46;;;;;;;149.48;77.30;;;;;;;3.61;100.00;99180.84;5053855;28;20028;-73
2024/01/02 01:04:12;;;;;;;110.78;61.70;;;;;;;3.29;100.00;99173.22;5053443;28;20036;-73
2024/01/02 01:06:37;;;;;;;101.07;57.72;;;;;;;3.43;100.00;99174.16;5048669;28;20485;-72
2024/01/02 01:09:03;;;;;;;86.30;50.10;;;;;;;3.52;100.00;99188.16;5070286;28;20053;-73
2024/01/02 01:11:28;;;;;;;102.00;54.38;;;;;;;3.23;100.00;99187.09;5035417;28;20032;-73
2024/01/02 01:13:54;;;;;;;96.53;52.58;;;;;;;3.13;100.00;99178.91;5039325;28;20017;-72
2024/01/02 01:16:19;;;;;;;91.68;50.72;;;;;;;2.85;100.00;99194.38;5051526;28;20032;-72
2024/01/02 01:18:45;;;;;;;87.20;49.22;;;;;;;2.81;100.00;99194.94;5051543;28;20090;-72
2024/01/02 01:21:10;;;;;;;84.63;45.38;;;;;;;2.81;100.00;99191.38;5034705;28;20049;-72
2024/01/02 01:23:36;;;;;;;73.82;40.70;;;;;;;2.88;100.00;99191.84;5062427;28;20519;-72
2024/01/02 01:26:02;;;;;;;69.03;38.88;;;;;;;2.86;100.00;99177.50;5053441;28;20558;-73
2024/01/02 01:28:27;;;;;;;74.45;42.05;;;;;;;2.83;100.00;99166.22;5059562;28;20082;-73
2024/01/02 01:30:53;;;;;;;84.28;45.17;;;;;;;2.73;100.00;99161.59;5059648;28;20025;-72
2024/01/02 01:33:19;;;;;;;80.80;44.55;;;;;;;2.80;100.00;99162.09;5068945;28;20287;-72
2024/01/02 01:35:45;;;;;;;77.78;44.20;;;;;;;2.93;100.00;99155.91;5033521;28;20024;-72
2024/01/02 01:38:10;;;;;;;86.22;45.22;;;;;;;2.93;100.00;99155.91;5033318;28;20553;-72
2024/01/02 01:40:35;;;;;;;77.72;44.80;;;;;;;2.99;100.00;99153.06;5052136;28;20047;-72
2024/01/02 01:43:01;;;;;;;82.95;44.88;;;;;;;3.19;100.00;99155.63;5052246;28;20035;-71
2024/01/02 01:45:26;;;;;;;76.47;42.95;;;;;;;3.37;100.00;99148.50;5040374;28;20432;-71
2024/01/02 01:47:53;;;;;;;83.25;43.88;;;;;;;3.50;100.00;99149.75;5057953;28;20040;-71
2024/01/02 01:50:18;;;;;;;76.78;41.30;;;;;;;3.56;100.00;99149.66;5033031;28;20035;-71
2024/01/02 01:52:45;;;;;;;74.35;42.85;;;;;;;3.28;100.00;99143.94;5051906;28;20400;-71
2024/01/02 01:55:11;;;;;;;81.18;44.83;;;;;;;3.47;100.00;99146.75;5070631;28;20368;-71
2024/01/02 01:57:38;;;;;;;75.05;42.42;;;;;;;3.76;100.00;99146.63;5058117;28;20029;-71
2024/01/02 02:00:04;;;;;;;74.07;42.95;;;;;;;3.95;100.00;99128.41;5059388;28;20044;-71
2024/01/02 02:02:32;;;;;;;74.95;39.75;;;;;;;4.08;100.00;99124.88;5070293;28;20412;-71
2024/01/02 02:04:59;;;;;;;74.63;40.70;;;;;;;4.14;100.00;99120.91;5052047;28;20032;-71
2024/01/02 02:07:26;;;;;;;77.30;40.83;;;;;;;4.20;100.00;99107.78;5051232;28;20124;-71
2024/01/02 02:09:51;;;;;;;74.28;39.65;;;;;;;4.12;100.00;99120.38;5069009;28;20056;-72
2024/01/02 02:12:17;;;;;;;77.97;43.75;;;;;;;4.15;100.00;99128.06;5061181;28;20028;-71
2024/01/02 02:14:43;;;;;;;75.20;42.55;;;;;;;4.04;100.00;99134.88;5070899;28;20385;-71
2024/01/02 02:17:08;;;;;;;86.03;43.28;;;;;;;3.63;100.00;99139.06;5070469;28;20028;-71
2024/01/02 02:19:33;;;;;;;79.18;42.90;;;;;;;4.03;100.00;99142.38;5052641;28;20429;-71
2024/01/02 02:22:00;;;;;;;76.15;43.03;;;;;;;4.20;100.00;99136.31;5052698;28;20024;-71
2024/01/02 02:24:26;;;;;;;76.03;43.03;;;;;;;3.82;100.00;99129.97;5041066;28;20123;-71
2024/01/02 02:26:55;;;;;;;80.72;45.65;;;;;;;3.28;100.00;99135.63;5050513;28;20106;-71
2024/01/02 02:29:20;;;;;;;80.53;43.90;;;;;;;3.26;100.00;99152.50;5039301;28;20036;-71
2024/01/02 02:31:45;;;;;;;76.20;43.67;;;;;;;3.00;100.00;99146.44;5032611;28;20036;-71
2024/01/02 02:34:11;;;;;;;82.18;45.17;;;;;;;2.87;100.00;99140.47;5050419;28;20028;-71
2024/01/02 02:36:36;;;;;;;77.75;44.17;;;;;;;3.03;100.00;99143.09;5050491;28;20103;-71
2024/01/02 02:39:02;;;;;;;88.03;45.83;;;;;;;2.94;100.00;99142.88;5051178;28;20025;-71
2024/01/02 02:41:27;;;;;;;79.53;44.67;;;;;;;3.04;100.00;99130.94;5050287;28;20072;-71
2024/01/02 02:43:53;;;;;;;77.78;43.65;;;;;;;3.14;100.00;99133.59;5067737;28;20090;-71
2024/01/02 02:46:18;;;;;;;86.07;46.88;;;;;;;3.40;100.00;99130.50;5070137;28;20028;-72
2024/01/02 02:48:44;;;;;;;84.85;44.67;;;;;;;3.59;100.00;99136.06;5035832;28;20583;-72
2024/01/02 02:51:10;;;;;;;78.65;43.55;;;;;;;3.68;100.00;99127.94;5065736;28;20029;-71
2024/01/02 02:53:36;;;;;;;69.93;44.50;;;;;;;3.57;100.00;99120.88;5052534;28;20020;-70
2024/01/02 02:56:01;;;;;;;69.45;40.35;;;;;;;3.42;100.00;99119.97;5070124;28;20086;-70
2024/01/02 02:58:26;;;;;;;71.30;40.22;;;;;;;3.31;100.00;99113.72;5070077;28;20028;-70
2024/01/02 03:00:52;;;;;;;67.97;39.25;;;;;;;3.36;100.00;99129.44;5055983;28;20029;-70
2024/01/02 03:03:17;;;;;;;67.32;38.13;;;;;;;3.60;100.00;99129.41;5050237;28;20478;-70
2024/01/02 03:05:43;;;;;;;59.58;35.60;;;;;;;3.86;100.00;99128.22;5032868;28;20033;-70
2024/01/02 03:08:08;;;;;;;71.70;38.33;;;;;;;4.07;100.00;99126.81;5055867;28;20024;-70
2024/01/02 03:10:34;;;;;;;67.35;39.25;;;;;;;4.12;100.00;99125.91;5068908;28;20509;-70
2024/01/02 03:12:59;;;;;;;58.92;35.50;;;;;;;4.21;100.00;99124.13;5057164;28;20032;-71
2024/01/02 03:15:25;;;;;;;61.58;35.92;;;;;;;4.39;100.00;99121.59;5073513;28;20035;-70
2024/01/02 03:17:50;;;;;;;62.92;34.15;;;;;;;4.46;100.00;99127.59;5055469;28;20081;-70
2024/01/02 03:20:16;;;;;;;63.33;34.78;;;;;;;4.56;100.00;99132.13;5065554;28;20504;-70
2024/01/02 03:22:41;;;;;;;65.72;37.42;;;;;;;4.38;100.00;99141.31;5055947;28;20536;-71
2024/01/02 03:25:07;;;;;;;71.95;40.58;;;;;;;4.12;100.00;99139.75;5053655;28;20033;-71
2024/01/02 03:27:33;;;;;;;70.07;39.63;;;;;;;4.04;100.00;99137.66;5054097;28;20036;-70
2024/01/02 03:29:58;;;;;;;71.13;40.47;;;;;;;4.00;100.00;99143.00;5066776;28;20025;-70
2024/01/02 03:32:24;;;;;;;74.22;42.55;;;;;;;4.08;100.00;99136.75;5035673;28;20032;-70
2024/01/02 03:34:50;;;;;;;74.38;41.22;;;;;;;4.31;100.00;99138.94;5054884;28;20405;-70
2024/01/02 03:37:16;;;;;;;75.82;43.38;;;;;;;4.40;100.00;99141.84;5053419;28;20417;-70
2024/01/02 03:39:42;;;;;;;75.45;42.92;;;;;;;4.49;100.00;99137.25;5053418;28;20058;-70
2024/01/02 03:42:07;;;;;;;77.97;39.78;;;;;;;4.48;100.00;99125.34;5055280;28;20488;-70
2024/01/02 03:44:33;;;;;;;76.35;41.55;;;;;;;4.53;100.00;99107.00;5065248;28;20477;-71
2024/01/02 03:46:59;;;;;;;74.80;42.55;;;;;;;4.61;100.00;99120.97;5072844;28;20081;-70
2024/01/02 03:49:25;;;;;;;78.32;42.40;;;;;;;4.17;100.00;99131.38;5063172;28;20390;-70
2024/01/02 03:51:51;;;;;;;71.05;40.70;;;;;;;4.58;100.00;99134.63;5054885;28;20051;-70
2024/01/02 03:54:16;;;;;;;76.45;44.60;;;;;;;4.40;100.00;99131.56;5067750;28;20096;-70
2024/01/02 03:56:42;;;;;;;81.32;47.80;;;;;;;4.51;100.00;99121.16;5048879;28;20035;-70
2024/01/02 03:59:07;;;;;;;76.10;43.80;;;;;;;4.60;100.00;99127.66;5071853;28;20025;-70
2024/01/02 04:01:32;;;;;;;76.57;43.78;;;;;;;4.66;100.00;99114.53;5067325;28;20032;-70
2024/01/02 04:03:58;;;;;;;78.03;42.30;;;;;;;4.74;100.00;99121.31;5035257;28;20028;-71
2024/01/02 04:06:31;;;;;;;75.47;42.70;;;;;;;4.86;100.00;99112.50;5057744;28;20020;-70
2024/01/02 04:08:57;;;;;;;80.45;43.35;;;;;;;4.93;100.00;99110.16;5070784;28;20025;-71
2024/01/02 04:11:22;;;;;;;78.90;42.60;;;;;;;4.89;100.00;99109.94;5054195;28;20021;-71
2024/01/02 04:13:48;;;;;;;121.95;59.38;;;;;;;4.86;100.00;99115.28;5062019;28;20039;-70
2024/01/02 04:16:13;;;;;;;107.68;53.33;;;;;;;4.61;100.00;99120.97;5053415;28;20083;-70
2024/01/02 04:18:40;;;;;;;96.82;49.53;;;;;;;4.53;100.00;99121.66;5052378;28;20028;-70
2024/01/02 04:21:05;;;;;;;80.32;43.33;;;;;;;4.36;100.00;99133.31;5057935;28;20427;-70
2024/01/02 04:23:31;;;;;;;73.63;39.72;;;;;;;4.30;100.00;99123.44;5038314;28;20028;-70
2024/01/02 04:25:56;;;;;;;71.43;40.65;;;;;;;4.41;100.00;99130.47;5072205;28;20039;-70
2024/01/02 04:28:21;;;;;;;65.97;40.25;;;;;;;4.48;100.00;99130.06;5072404;28;20032;-70
2024/01/02 04:30:47;;;;;;;76.70;40.80;;;;;;;4.55;100.00;99130.50;5059014;28;20102;-70
2024/01/02 04:33:12;;;;;;;72.25;40.78;;;;;;;4.29;100.00;99127.34;5034491;28;20037;-70
2024/01/02 04:35:38;;;;;;;73.45;41.15;;;;;;;4.15;100.00;99116.19;5052469;28;20025;-70
2024/01/02 04:38:03;;;;;;;78.68;44.78;;;;;;;4.41;100.00;99124.09;5053269;28;20448;-71
2024/01/02 04:40:29;;;;;;;75.30;40.90;;;;;;;4.62;100.00;99121.78;5034439;28;20023;-70
2024/01/02 04:42:54;;;;;;;64.35;38.08;;;;;;;4.62;100.00;99133.69;5059005;28;20024;-70
2024/01/02 04:45:20;;;;;;;64.68;38.45;;;;;;;4.29;100.00;99128.16;5040786;28;20047;-70
2024/01/02 04:47:46;;;;;;;63.35;36.63;;;;;;;4.52;100.00;99133.88;5061412;28;20068;-70
2024/01/02 04:50:11;;;;;;;74.97;42.25;;;;;;;4.48;100.00;99132.84;5058345;28;20024;-70
2024/01/02 04:52:37;;;;;;;74.78;44.20;;;;;;;4.62;100.00;99130.09;5062608;28;20086;-70
2024/01/02 04:55:03;;;;;;;85.78;44.28;;;;;;;4.54;100.00;99133.59;5052100;28;20028;-70
2024/01/02 04:57:28;;;;;;;82.85;44.30;;;;;;;4.61;100.00;99143.13;5052589;28;20442;-70
2024/01/02 04:59:53;;;;;;;79.28;45.38;;;;;;;4.69;100.00;99146.31;5039413;28;20028;-70
2024/01/02 05:02:22;;;;;;;74.88;43.17;;;;;;;4.66;100.00;99133.09;5047080;28;20033;-70
2024/01/02 05:04:49;;;;;;;78.80;42.13;;;;;;;4.35;100.00;99143.56;5033855;28;20021;-70
2024/01/02 05:07:15;;;;;;;67.47;40.65;;;;;;;4.35;100.00;99140.81;5053903;28;20099;-70
2024/01/02 05:09:40;;;;;;;78.30;43.28;;;;;;;4.57;100.00;99139.31;5071604;28;20051;-70
2024/01/02 05:12:06;;;;;;;102.70;53.40;;;;;;;4.69;100.00;99147.16;5067541;28;20505;-72
2024/01/02 05:14:31;;;;;;;175.40;75.32;;;;;;;4.50;100.00;99142.47;5051601;28;20020;-73
2024/01/02 05:16:57;;;;;;;167.85;73.78;;;;;;;4.59;100.00;99131.53;5033760;28;20021;-73
2024/01/02 05:19:22;;;;;;;196.57;83.28;;;;;;;4.66;100.00;99142.25;5040161;28;20028;-73
2024/01/02 05:21:47;;;;;;;167.57;81.68;;;;;;;4.65;100.00;99129.50;5034081;28;20515;-73
2024/01/02 05:24:13;;;;;;;148.48;69.63;;;;;;;4.65;100.00;99129.50;5041423;28;20082;-72
2024/01/02 05:26:39;;;;;;;169.38;81.68;;;;;;;4.67;100.00;99143.03;5053064;28;20085;-72
2024/01/02 05:29:04;;;;;;;154.82;78.50;;;;;;;4.73;100.00;99141.84;5069680;28;20028;-72
2024/01/02 05:31:30;;;;;;;142.30;67.68;;;;;;;4.76;100.00;99144.81;5050491;28;20039;-72
2024/01/02 05:33:55;;;;;;;123.00;67.20;;;;;;;4.80;100.00;99150.56;5049548;28;20492;-72
2024/01/02 05:36:21;;;;;;;132.20;64.78;;;;;;;4.54;100.00;99153.78;5051755;28;20024;-72
2024/01/02 05:38:49;;;;;;;108.05;59.20;;;;;;;4.78;100.00;99147.28;5053737;28;20028;-72
2024/01/02 05:41:14;;;;;;;123.88;61.85;;;;;;;4.35;100.00;99160.19;5052253;28;20505;-73
2024/01/02 05:43:40;;;;;;;197.25;114.95;;;;;;;3.97;100.00;99167.66;5053441;28;20098;-72
2024/01/02 05:46:05;;;;;;;194.23;109.85;;;;;;;4.33;100.00;99167.94;5052905;28;20039;-73
2024/01/02 05:48:31;;;;;;;179.73;103.45;;;;;;;4.49;100.00;99164.97;5070337;28;20485;-73
2024/01/02 05:50:57;;;;;;;139.75;84.03;;;;;;;4.40;100.00;99169.53;5068979;28;20158;-72
2024/01/02 05:53:22;;;;;;;142.15;75.10;;;;;;;4.22;100.00;99174.75;5040452;28;20399;-72
2024/01/02 05:55:48;;;;;;;108.68;57.83;;;;;;;4.22;100.00;99192.22;5069592;28;20161;-73
2024/01/02 05:58:13;;;;;;;100.90;54.53;;;;;;;4.10;100.00;99182.69;5069899;28;20481;-72
2024/01/02 06:00:39;;;;;;;92.55;50.63;;;;;;;4.25;100.00;99181.66;5070824;28;20412;-73
2024/01/02 06:03:04;;;;;;;92.97;49.85;;;;;;;4.14;100.00;99183.75;5070405;28;20020;-72
2024/01/02 06:05:30;;;;;;;82.25;46.38;;;;;;;4.14;100.00;99172.69;5069407;28;20028;-72
2024/01/02 06:07:55;;;;;;;82.38;43.15;;;;;;;4.34;100.00;99183.47;5064220;28;20032;-71
2024/01/02 06:10:21;;;;;;;77.07;46.58;;;;;;;4.53;100.00;99181.81;5052513;28;20048;-74
2024/01/02 06:12:47;;;;;;;81.07;47.38;;;;;;;4.43;100.00;99178.06;5052749;28;20029;-72
2024/01/02 06:15:14;;;;;;;104.13;52.35;;;;;;;4.60;100.00;99182.22;5071404;28;20025;-68
2024/01/02 06:17:39;;;;;;;93.38;54.53;;;;;;;4.69;100.00;99185.13;5054513;28;20463;-69
2024/01/02 06:20:06;;;;;;;97.00;56.47;;;;;;;4.55;100.00;99185.91;5071621;28;20038;-69
2024/01/02 06:22:34;;;;;;;101.05;61.53;;;;;;;4.64;100.00;99186.03;5069249;28;20042;-69
2024/01/02 06:25:00;;;;;;;145.68;81.43;;;;;;;4.64;100.00;99184.09;5051567;28;20039;-68
2024/01/02 06:27:25;;;;;;;150.93;87.10;;;;;;;4.82;100.00;99187.09;5067725;28;20036;-70
2024/01/02 06:29:51;;;;;;;207.43;109.38;;;;;;;4.91;100.00;99184.47;5068213;28;20029;-70
2024/01/02 06:32:18;;;;;;;144.73;84.80;;;;;;;4.98;100.00;99182.13;5057347;28;20116;-69
2024/01/02 06:34:44;;;;;;;149.30;84.82;;;;;;;4.80;100.00;99178.28;5059043;28;20032;-71
2024/01/02 06:37:09;;;;;;;144.13;84.68;;;;;;;4.56;100.00;99172.88;5066318;28;20036;-69
2024/01/02 06:39:35;;;;;;;130.70;74.80;;;;;;;4.52;100.00;99171.81;5071708;28;20107;-69
2024/01/02 06:42:00;;;;;;;94.53;54.70;;;;;;;4.48;100.00;99168.84;5083254;28;20468;-71
2024/01/02 06:44:26;;;;;;;71.95;41.35;;;;;;;4.42;100.00;99158.97;5080413;28;20040;-69
2024/01/02 06:46:52;;;;;;;125.68;65.35;;;;;;;4.28;100.00;99156.97;5054714;28;20121;-69
2024/01/02 06:49:17;;;;;;;110.93;58.47;;;;;;;4.32;100.00;99155.22;5077704;28;20032;-70
2024/01/02 06:51:43;;;;;;;133.18;70.95;;;;;;;4.07;100.00;99157.25;5053825;28;20040;-68
2024/01/02 06:54:08;;;;;;;102.85;57.50;;;;;;;4.17;100.00;99155.47;5053535;28;20530;-70
2024/01/02 06:56:34;;;;;;;97.80;54.38;;;;;;;4.09;100.00;99165.28;5072012;28;20040;-69
2024/01/02 06:58:59;;;;;;;82.60;46.55;;;;;;;4.12;100.00;99174.94;5068860;28;20116;-70
2024/01/02 07:01:27;;;;;;;68.57;40.67;;;;;;;4.21;100.00;99186.97;5051414;28;20033;-71
2024/01/02 07:03:53;;;;;;;75.82;44.50;;;;;;;4.07;100.00;99198.78;5062235;28;20072;-69
2024/01/02 07:06:18;;;;;;;72.70;42.40;;;;;;;3.68;100.00;99210.09;5039503;28;20036;-69
2024/01/02 07:08:44;;;;;;;74.95;37.78;;;;;;;3.69;100.00;99203.47;5057731;28;20033;-69
2024/01/02 07:11:09;;;;;;;60.28;33.70;;;;;;;4.06;100.00;99196.34;5034237;28;20032;-71
2024/01/02 07:13:35;;;;;;;65.00;39.45;;;;;;;4.22;100.00;99194.13;5034437;28;20036;-69
2024/01/02 07:16:00;;;;;;;59.45;33.67;;;;;;;4.46;100.00;99194.06;5047556;28;20451;-69
2024/01/02 07:18:27;;;;;;;57.90;30.30;;;;;;;4.47;100.00;99192.94;5033446;28;20404;-70
2024/01/02 07:20:52;;;;;;;52.30;29.85;;;;;;;4.47;100.00;99194.91;5051200;28;20025;-69
2024/01/02 07:23:18;;;;;;;47.85;28.02;;;;;;;4.59;100.00;99202.75;5051535;28;20043;-70
2024/01/02 07:25:44;;;;;;;45.13;25.67;;;;;;;4.68;100.00;99191.78;5052278;28;20774;-71
2024/01/02 07:28:09;;;;;;;40.10;25.45;;;;;;;4.89;100.00;99201.41;5049575;28;20037;-70
2024/01/02 07:30:34;;;;;;;52.50;27.77;;;;;;;4.70;100.00;99201.44;5014429;28;20037;-69
2024/01/02 07:33:00;;;;;;;45.78;31.13;;;;;;;4.90;100.00;99200.28;5014836;28;20418;-68
2024/01/02 07:35:26;;;;;;;45.42;24.23;;;;;;;4.99;100.00;99216.22;5045642;28;20071;-68
2024/01/02 07:37:51;;;;;;;55.55;31.98;;;;;;;5.10;100.00;99203.81;5018586;28;20037;-68
2024/01/02 07:40:17;;;;;;;81.05;43.83;;;;;;;5.30;100.00;99212.88;5032711;28;20032;-68
2024/01/02 07:42:42;;;;;;;81.95;46.78;;;;;;;5.41;100.00;99211.56;5030403;28;20033;-69
2024/01/02 07:45:09;;;;;;;68.88;41.15;;;;;;;5.44;100.00;99216.50;5044059;28;20115;-68
2024/01/02 07:47:34;;;;;;;62.85;39.35;;;;;;;5.66;100.00;99212.19;5017769;28;20029;-69
2024/01/02 07:50:00;;;;;;;74.25;45.80;;;;;;;5.75;100.00;99218.66;5035729;28;20025;-69
2024/01/02 07:52:26;;;;;;;86.97;52.70;;;;;;;5.79;100.00;99220.81;5044773;28;20452;-69
2024/01/02 07:54:51;;;;;;;63.50;38.25;;;;;;;5.80;100.00;99226.06;5067048;28;20095;-70
2024/01/02 07:57:16;;;;;;;48.50;31.90;;;;;;;5.81;100.00;99224.94;5038485;28;20087;-72
2024/01/02 07:59:42;;;;;;;40.55;25.77;;;;;;;6.02;100.00;99239.22;5061490;28;20024;-72
2024/01/02 08:02:07;;;;;;;46.78;31.27;;;;;;;6.15;100.00;99237.59;5033667;28;20028;-72
2024/01/02 08:04:33;;;;;;;54.35;31.85;;;;;;;6.16;100.00;99249.53;5060396;28;20474;-71
2024/01/02 08:07:01;;;;;;;54.25;32.00;;;;;;;6.21;100.00;99257.72;5027267;28;20017;-72
2024/01/02 08:09:27;;;;;;;50.00;28.98;;;;;;;6.17;100.00;99262.28;5027413;28;20087;-71
2024/01/02 08:11:52;;;;;;;60.47;35.80;;;;;;;6.24;100.00;99265.44;5034143;28;20505;-70
2024/01/02 08:14:18;;;;;;;55.85;36.53;;;;;;;6.18;100.00;99269.47;5049463;28;20035;-70
2024/01/02 08:16:43;;;;;;;50.30;29.42;;;;;;;6.23;100.00;99269.34;5050186;28;20021;-70
2024/01/02 08:19:09;;;;;;;108.22;66.28;;;;;;;6.36;100.00;99278.81;5051883;28;20090;-71
2024/01/02 08:21:34;;;;;;;77.43;50.25;;;;;;;6.47;100.00;99273.84;5043154;28;20196;-70
2024/01/02 08:24:00;;;;;;;53.65;33.00;;;;;;;6.60;100.00;99275.75;5038865;28;20029;-70
2024/01/02 08:26:25;;;;;;;48.28;28.98;;;;;;;6.71;100.00;99275.53;5062693;28;20028;-70
2024/01/02 08:28:51;;;;;;;52.28;31.20;;;;;;;6.85;100.00;99279.06;5036230;28;20033;-70
2024/01/02 08:31:16;;;;;;;53.83;30.70;;;;;;;6.96;100.00;99281.59;5051359;28;20079;-70
2024/01/02 08:33:42;;;;;;;52.17;31.40;;;;;;;6.85;100.00;99290.19;5042104;28;20017;-69
2024/01/02 08:36:10;;;;;;;75.07;46.22;;;;;;;6.62;100.00;99282.94;5060457;28;20398;-70
2024/01/02 08:38:35;;;;;;;82.80;51.33;;;;;;;6.77;100.00;99282.63;5036683;28;20573;-69
2024/01/02 08:41:01;;;;;;;108.35;63.22;;;;;;;6.71;100.00;99281.91;5035043;28;20116;-69
2024/01/02 08:43:26;;;;;;;122.20;77.03;;;;;;;6.73;100.00;99281.59;5032206;28;20490;-70
2024/01/02 08:45:52;;;;;;;119.07;76.25;;;;;;;6.84;100.00;99293.31;5055848;28;20037;-70
2024/01/02 08:48:17;;;;;;;120.30;76.55;;;;;;;6.85;100.00;99297.72;5049491;28;20041;-71
2024/01/02 08:50:43;;;;;;;117.75;75.70;;;;;;;6.87;100.00;99296.25;5049684;28;20489;-70
2024/01/02 08:53:12;;;;;;;116.78;77.97;;;;;;;7.09;100.00;99294.63;5033496;28;20025;-69
2024/01/02 08:55:38;;;;;;;121.03;80.43;;;;;;;7.18;100.00;99297.50;5047444;28;20028;-71
2024/01/02 08:58:04;;;;;;;116.60;75.85;;;;;;;7.21;100.00;99301.56;5050078;28;20110;-69
2024/01/02 09:00:30;;;;;;;107.60;68.88;;;;;;;7.25;100.00;99297.03;5051325;28;20021;-70
2024/01/02 09:02:55;;;;;;;67.78;46.47;;;;;;;7.29;100.00;99298.84;5033019;28;20060;-69
2024/01/02 09:05:21;;;;;;;105.90;60.13;;;;;;;7.21;100.00;99296.84;5050010;28;20067;-69
2024/01/02 09:07:46;;;;;;;475.83;244.70;;;;;;;7.30;100.00;99294.13;5050799;28;20033;-70
2024/01/02 09:10:13;;;;;;;441.00;262.02;;;;;;;7.39;100.00;99296.94;5045572;28;20117;-69
2024/01/02 09:12:39;;;;;;;148.80;95.78;;;;;;;7.39;100.00;99295.00;5059540;28;20561;-70
2024/01/02 09:15:06;;;;;;;108.88;71.95;;;;;;;7.48;100.00;99292.25;5064530;28;20421;-69
2024/01/02 09:17:32;;;;;;;94.13;60.10;;;;;;;7.59;100.00;99295.59;5070863;28;20020;-69
2024/01/02 09:19:57;;;;;;;93.60;61.78;;;;;;;7.63;100.00;99296.63;5052956;28;20472;-70
2024/01/02 09:22:23;;;;;;;134.15;88.85;;;;;;;7.71;100.00;99281.91;5072604;28;20085;-70
2024/01/02 09:24:51;;;;;;;83.90;52.47;;;;;;;7.77;100.00;99276.19;5079834;28;20473;-71
2024/01/02 09:27:18;;;;;;;78.97;49.60;;;;;;;7.65;100.00;99280.41;5059858;28;20057;-68
2024/01/02 09:29:43;;;;;;;92.22;56.90;;;;;;;7.78;100.00;99278.66;5071450;28;20079;-69
2024/01/02 09:32:10;;;;;;;85.40;53.65;;;;;;;7.86;100.00;99280.66;5048124;28;20473;-70
2024/01/02 09:34:36;;;;;;;83.05;52.50;;;;;;;7.91;100.00;99281.69;5053247;28;20028;-69
2024/01/02 09:37:04;;;;;;;82.57;50.35;;;;;;;7.89;100.00;99281.97;5069722;28;20113;-70
2024/01/02 09:39:29;;;;;;;87.82;50.60;;;;;;;7.87;100.00;99284.28;5049515;28;20423;-69
2024/01/02 09:42:02;;;;;;;101.80;56.63;;;;;;;7.95;100.00;99285.44;5066220;28;20033;-70
2024/01/02 09:44:45;;;;;;;110.60;57.60;;;;;;;7.81;100.00;99288.31;5067409;28;20028;-71
2024/01/02 09:47:14;;;;;;;101.13;56.40;;;;;;;7.91;100.00;99279.69;5053994;28;20032;-69
2024/01/02 09:49:58;;;;;;;80.93;47.13;;;;;;;7.94;100.00;99279.03;5067362;28;20056;-69
2024/01/02 09:52:23;;;;;;;69.90;43.30;;;;;;;7.95;100.00;99280.69;5069149;28;20107;-67
2024/01/02 09:55:04;;;;;;;62.45;39.40;;;;;;;7.87;100.00;99285.06;5067443;28;20107;-67
2024/01/02 09:57:52;;;;;;;54.50;33.75;;;;;;;7.93;100.00;99274.63;5049423;28;20092;-68
2024/01/02 10:00:27;;;;;;;47.67;29.30;;;;;;;7.99;100.00;99281.69;5065753;28;20101;-66
2024/01/02 10:03:06;;;;;;;38.95;23.42;;;;;;;8.06;100.00;99280.41;5031601;28;20063;-68
2024/01/02 10:05:57;;;;;;;36.30;22.63;;;;;;;8.18;100.00;99277.00;5050157;28;20404;-67
2024/01/02 10:08:28;;;;;;;32.53;17.35;;;;;;;8.18;100.00;99277.00;5037294;28;20064;-68
2024/01/02 10:11:04;;;;;;;57.67;35.97;;;;;;;8.23;100.00;99268.47;5037188;28;20049;-69
2024/01/02 10:13:45;;;;;;;54.65;31.60;;;;;;;8.28;100.00;99271.94;5038094;28;20079;-69
2024/01/02 10:16:23;;;;;;;51.38;28.02;;;;;;;8.31;100.00;99264.91;5048131;28;20028;-70
2024/01/02 10:19:12;;;;;;;43.92;24.13;;;;;;;8.43;100.00;99255.88;5026778;28;20033;-69
2024/01/02 10:22:04;;;;;;;42.95;24.77;;;;;;;8.47;100.00;99242.97;5048252;28;20082;-69
2024/01/02 10:24:49;;;;;;;38.80;21.65;;;;;;;8.57;100.00;99253.00;5034768;28;20446;-68
2024/01/02 10:27:16;;;;;;;25.48;14.98;;;;;;;8.68;100.00;99247.91;5044544;28;20037;-69
2024/01/02 10:30:06;;;;;;;20.13;10.10;;;;;;;8.89;100.00;99255.63;5016704;28;20045;-68
2024/01/02 10:32:50;;;;;;;20.38;10.63;;;;;;;8.89;100.00;99252.81;5045946;28;20033;-70
2024/01/02 10:35:32;;;;;;;11.43;7.30;;;;;;;8.98;100.00;99259.22;5016106;28;20118;-69
2024/01/02 10:38:19;;;;;;;8.65;6.32;;;;;;;9.01;100.00;99243.81;5041868;28;20037;-70
2024/01/02 10:41:02;;;;;;;7.85;5.38;;;;;;;9.13;100.00;99235.59;5050322;28;20120;-69
2024/01/02 10:43:30;;;;;;;17.33;11.50;;;;;;;9.27;100.00;99240.94;5034205;28;20112;-68
2024/01/02 10:46:13;;;;;;;18.10;12.00;;;;;;;9.44;100.00;99240.09;5051053;28;20520;-69
2024/01/02 10:48:42;;;;;;;17.38;9.02;;;;;;;9.48;100.00;99241.09;5045835;28;20032;-68
2024/01/02 10:51:12;;;;;;;8.80;6.17;;;;;;;9.36;100.00;99247.34;5034021;28;20039;-70
2024/01/02 10:54:06;;;;;;;18.27;10.80;;;;;;;9.38;100.00;99245.03;5028837;28;20053;-70
2024/01/02 10:56:45;;;;;;;18.38;9.88;;;;;;;9.44;100.00;99248.47;5022269;28;20037;-69
2024/01/02 10:59:28;;;;;;;10.98;6.90;;;;;;;9.52;100.00;99239.25;5030912;28;20489;-70
2024/01/02 11:02:03;;;;;;;8.13;5.60;;;;;;;9.62;100.00;99235.25;5042362;28;20549;-72
2024/01/02 11:05:03;;;;;;;9.05;5.95;;;;;;;9.58;100.00;99231.50;5028264;28;20512;-73
2024/01/02 11:07:35;;;;;;;12.02;6.80;;;;;;;9.62;100.00;99235.25;5029008;28;20040;-71
2024/01/02 11:10:29;;;;;;;12.88;7.95;;;;;;;9.71;100.00;99240.00;5039277;28;20182;-73
2024/01/02 11:13:01;;;;;;;12.88;9.23;;;;;;;9.76;100.00;99232.25;5058748;28;20037;-71
2024/01/02 11:15:31;;;;;;;14.55;9.52;;;;;;;9.80;100.00;99233.22;5052848;28;20016;-71
2024/01/02 11:17:59;;;;;;;13.98;10.25;;;;;;;9.83;100.00;99228.94;5057569;28;20031;-71